Time;durP1;ratioP1;P1;durP2;ratioP2;P2;SDS_P1;SDS_P2;PMS_P1;PMS_P2;Temp;Humidity;BMP_temperature;BMP_pressure;BME280_temperature;BME280_humidity;BME280_pressure;Samples;Min_cycle;Max_cycle;Signal;HPM_P1;HPM_P2
2021/09/08 00:00:19;;;;;;;18.47;14.00;;;15.20;97.70;;;;;;5069962;28;20621;-81
2021/09/08 00:02:47;;;;;;;15.63;13.40;;;15.30;97.50;;;;;;5090604;28;21281;-82
2021/09/08 00:05:15;;;;;;;15.03;13.43;;;15.30;97.00;;;;;;5091578;28;20629;-81
2021/09/08 00:07:41;;;;;;;15.57;11.87;;;15.20;97.30;;;;;;5089983;28;21181;-81
2021/09/08 00:10:09;;;;;;;14.57;12.43;;;15.20;97.30;;;;;;5089954;28;20661;-81
2021/09/08 00:12:36;;;;;;;14.20;12.60;;;15.20;98.30;;;;;;5088535;28;20625;-81
2021/09/08 00:15:05;;;;;;;15.07;13.57;;;15.10;97.90;;;;;;5090033;28;20671;-81
2021/09/08 00:17:32;;;;;;;14.13;12.73;;;15.10;98.40;;;;;;5090680;28;20693;-81
2021/09/08 00:20:00;;;;;;;14.40;12.90;;;15.10;98.80;;;;;;5090817;28;20631;-81
2021/09/08 00:22:27;;;;;;;13.30;11.97;;;15.20;98.70;;;;;;5089781;28;20759;-81
2021/09/08 00:24:54;;;;;;;17.03;14.30;;;15.10;98.70;;;;;;5090467;28;21018;-81
2021/09/08 00:27:21;;;;;;;14.83;13.30;;;15.10;99.20;;;;;;5090634;28;20674;-81
2021/09/08 00:29:48;;;;;;;16.20;13.80;;;15.00;99.30;;;;;;5091054;28;21017;-81
2021/09/08 00:32:15;;;;;;;13.87;12.50;;;14.90;99.70;;;;;;5090005;28;20609;-81
2021/09/08 00:34:42;;;;;;;16.90;14.27;;;14.80;99.90;;;;;;5090481;28;20678;-81
2021/09/08 00:37:10;;;;;;;14.33;12.83;;;14.80;99.90;;;;;;5090476;28;21180;-81
2021/09/08 00:39:37;;;;;;;15.77;14.03;;;14.70;99.90;;;;;;5090313;28;20674;-81
2021/09/08 00:42:10;;;;;;;16.20;14.50;;;14.70;99.90;;;;;;5089494;28;20663;-81
2021/09/08 00:44:37;;;;;;;17.10;15.17;;;14.70;99.90;;;;;;5090985;28;21043;-81
2021/09/08 00:47:04;;;;;;;15.03;13.57;;;14.70;99.90;;;;;;5090209;28;20670;-81
2021/09/08 00:49:31;;;;;;;16.90;15.20;;;14.70;99.90;;;;;;5090956;28;20620;-81
2021/09/08 00:52:02;;;;;;;17.57;15.03;;;14.70;99.90;;;;;;5089440;28;20684;-81
2021/09/08 00:54:31;;;;;;;15.00;13.13;;;14.60;99.90;;;;;;5091304;28;20609;-81
2021/09/08 00:56:59;;;;;;;13.83;12.50;;;14.60;99.30;;;;;;5090157;28;20616;-81
2021/09/08 00:59:26;;;;;;;14.80;13.33;;;14.60;99.00;;;;;;5090639;28;21207;-81
2021/09/08 01:01:53;;;;;;;17.30;14.50;;;14.60;99.00;;;;;;5089637;28;20648;-81
2021/09/08 01:04:23;;;;;;;15.83;14.07;;;14.60;99.60;;;;;;5090432;28;20626;-81
2021/09/08 01:06:52;;;;;;;15.37;13.80;;;14.50;99.90;;;;;;5090950;28;20658;-81
2021/09/08 01:09:20;;;;;;;15.43;13.73;;;14.40;99.90;;;;;;5088829;28;20640;-81
2021/09/08 01:11:50;;;;;;;17.20;15.27;;;14.40;99.90;;;;;;5093220;28;20628;-81
2021/09/08 01:14:18;;;;;;;17.10;13.90;;;14.40;99.90;;;;;;5094507;28;20728;-81
2021/09/08 01:16:49;;;;;;;15.60;13.90;;;14.30;99.90;;;;;;5093612;28;20636;-81
2021/09/08 01:19:17;;;;;;;16.97;15.17;;;14.30;99.90;;;;;;5094512;28;20648;-81
2021/09/08 01:21:45;;;;;;;14.70;13.07;;;14.20;99.90;;;;;;5093272;28;20714;-81
2021/09/08 01:24:15;;;;;;;15.30;13.50;;;14.20;99.90;;;;;;5094157;28;20624;-81
2021/09/08 01:26:44;;;;;;;16.10;13.47;;;14.10;99.90;;;;;;5093170;28;20666;-81
2021/09/08 01:29:12;;;;;;;15.77;14.07;;;14.00;99.30;;;;;;5094165;28;21585;-81
2021/09/08 01:31:41;;;;;;;18.50;14.93;;;14.00;99.50;;;;;;5092681;28;20640;-81
2021/09/08 01:34:10;;;;;;;16.37;14.70;;;14.00;99.70;;;;;;5094161;28;20631;-81
2021/09/08 01:36:39;;;;;;;17.20;14.87;;;14.00;99.70;;;;;;5093612;28;20621;-81
2021/09/08 01:39:08;;;;;;;16.63;14.83;;;14.00;99.90;;;;;;5093875;28;20680;-81
2021/09/08 01:41:39;;;;;;;16.73;15.03;;;14.00;99.70;;;;;;5092766;28;20840;-81
2021/09/08 01:44:07;;;;;;;16.73;14.97;;;13.90;99.90;;;;;;5093581;28;20930;-81
2021/09/08 01:46:35;;;;;;;18.37;14.63;;;13.90;99.90;;;;;;5093893;28;20723;-81
2021/09/08 01:49:03;;;;;;;17.30;14.93;;;13.90;99.90;;;;;;5093891;28;20634;-81
2021/09/08 01:51:31;;;;;;;18.03;16.10;;;13.90;99.90;;;;;;5093890;28;20669;-81
2021/09/08 01:53:59;;;;;;;16.00;14.50;;;13.80;99.90;;;;;;5092991;28;20620;-80
2021/09/08 01:56:27;;;;;;;14.27;12.70;;;13.80;99.90;;;;;;5092462;28;20627;-81
2021/09/08 01:58:57;;;;;;;16.23;14.57;;;13.70;99.90;;;;;;5093039;28;21095;-81
2021/09/08 02:01:25;;;;;;;19.80;14.77;;;13.70;99.90;;;;;;5092692;28;20986;-81
2021/09/08 02:03:54;;;;;;;17.90;15.30;;;13.70;99.90;;;;;;5092358;28;20620;-80
2021/09/08 02:06:26;;;;;;;19.17;15.00;;;13.70;99.90;;;;;;5093519;28;20624;-81
2021/09/08 02:08:56;;;;;;;17.80;14.60;;;13.70;99.90;;;;;;5092740;28;20625;-81
2021/09/08 02:11:27;;;;;;;18.03;15.60;;;13.70;99.90;;;;;;5088085;28;20684;-81
2021/09/08 02:13:56;;;;;;;19.13;16.20;;;13.60;99.90;;;;;;5091837;28;20654;-80
2021/09/08 02:16:25;;;;;;;16.27;14.53;;;13.70;99.90;;;;;;5093502;28;20715;-81
2021/09/08 02:18:54;;;;;;;18.10;15.13;;;13.60;99.90;;;;;;5086812;28;21261;-81
2021/09/08 02:21:21;;;;;;;16.70;14.10;;;13.60;99.90;;;;;;5086918;28;20740;-81
2021/09/08 02:23:49;;;;;;;16.10;14.50;;;13.50;99.90;;;;;;5083474;28;20756;-80
2021/09/08 02:26:18;;;;;;;15.73;13.97;;;13.60;99.90;;;;;;5092551;28;20649;-80
2021/09/08 02:28:46;;;;;;;13.97;12.57;;;13.60;99.90;;;;;;5090523;28;20666;-80
2021/09/08 02:31:16;;;;;;;14.17;12.70;;;13.60;99.90;;;;;;5092478;28;20711;-80
2021/09/08 02:33:44;;;;;;;13.23;11.93;;;13.50;99.90;;;;;;5092200;28;20643;-81
2021/09/08 02:36:11;;;;;;;16.43;12.43;;;13.40;99.90;;;;;;5091656;28;20636;-80
2021/09/08 02:38:39;;;;;;;15.30;12.87;;;13.40;99.90;;;;;;5092456;28;21211;-80
2021/09/08 02:41:08;;;;;;;14.10;12.60;;;13.50;99.90;;;;;;5092368;28;21246;-80
2021/09/08 02:43:37;;;;;;;14.80;13.00;;;13.40;99.90;;;;;;5092228;28;20659;-80
2021/09/08 02:46:06;;;;;;;13.57;12.37;;;13.40;99.90;;;;;;5092256;28;20661;-80
2021/09/08 02:48:36;;;;;;;15.90;13.33;;;13.40;99.90;;;;;;5092202;28;20627;-80
2021/09/08 02:51:05;;;;;;;15.13;13.47;;;13.40;99.90;;;;;;5092407;28;20626;-80
2021/09/08 02:53:33;;;;;;;13.50;12.13;;;13.30;99.90;;;;;;5091874;28;20982;-81
2021/09/08 02:56:02;;;;;;;17.70;14.20;;;13.30;99.90;;;;;;5091818;28;20623;-81
2021/09/08 02:58:30;;;;;;;14.03;12.60;;;13.30;99.90;;;;;;5092242;28;21207;-81
2021/09/08 03:00:57;;;;;;;14.13;12.60;;;13.20;99.90;;;;;;5091669;28;21004;-80
2021/09/08 03:03:25;;;;;;;15.93;14.33;;;13.20;99.90;;;;;;5091598;28;20664;-81
2021/09/08 03:05:55;;;;;;;15.93;14.07;;;13.20;99.90;;;;;;5091701;28;20637;-80
2021/09/08 03:08:22;;;;;;;15.23;13.50;;;13.20;99.90;;;;;;5091707;28;20637;-81
2021/09/08 03:10:50;;;;;;;16.70;14.23;;;13.10;99.90;;;;;;5092236;28;20737;-80
2021/09/08 03:13:19;;;;;;;18.03;15.57;;;13.00;99.90;;;;;;5090830;28;21551;-80
2021/09/08 03:15:47;;;;;;;16.80;14.23;;;13.10;99.90;;;;;;5089460;28;20633;-81
2021/09/08 03:18:15;;;;;;;18.60;14.13;;;13.00;99.90;;;;;;5092218;28;20630;-80
2021/09/08 03:20:44;;;;;;;17.23;14.23;;;12.90;99.90;;;;;;5091304;28;20630;-81
2021/09/08 03:23:13;;;;;;;15.63;14.10;;;13.00;99.90;;;;;;5090206;28;20657;-80
2021/09/08 03:25:53;;;;;;;17.80;15.67;;;12.90;99.90;;;;;;5090633;28;21198;-80
2021/09/08 03:28:21;;;;;;;18.53;15.80;;;12.90;99.90;;;;;;5070429;28;20964;-80
2021/09/08 03:30:48;;;;;;;17.27;15.47;;;12.90;99.90;;;;;;5081237;28;20637;-80
2021/09/08 03:33:15;;;;;;;16.87;15.07;;;12.80;99.90;;;;;;5089841;28;20611;-80
2021/09/08 03:35:42;;;;;;;18.37;15.50;;;12.80;99.90;;;;;;5091317;28;20626;-80
2021/09/08 03:38:09;;;;;;;17.70;15.80;;;12.80;99.90;;;;;;5091778;28;20606;-81
2021/09/08 03:40:38;;;;;;;17.93;15.40;;;12.80;99.90;;;;;;5090771;28;20620;-80
2021/09/08 03:43:05;;;;;;;19.30;16.50;;;12.90;99.90;;;;;;5090753;28;20653;-80
2021/09/08 03:45:32;;;;;;;19.80;15.87;;;12.80;99.90;;;;;;5090579;28;20617;-80
2021/09/08 03:47:59;;;;;;;16.07;14.50;;;12.80;99.90;;;;;;5091611;28;20733;-80
2021/09/08 03:50:26;;;;;;;20.37;16.90;;;12.80;99.90;;;;;;5090241;28;20617;-80
2021/09/08 03:52:54;;;;;;;18.93;16.77;;;12.80;99.90;;;;;;5090594;28;20681;-80
2021/09/08 03:55:21;;;;;;;17.30;15.50;;;12.70;99.90;;;;;;5088879;28;20956;-80
2021/09/08 03:57:49;;;;;;;19.27;17.00;;;12.70;99.90;;;;;;5086861;28;20631;-79
2021/09/08 04:00:17;;;;;;;20.17;17.40;;;12.70;99.90;;;;;;5090760;28;20617;-80
2021/09/08 04:02:44;;;;;;;19.20;17.10;;;12.70;99.90;;;;;;5071114;28;21018;-79
2021/09/08 04:05:12;;;;;;;16.27;14.67;;;12.60;99.90;;;;;;5074956;28;20651;-80
2021/09/08 04:07:38;;;;;;;20.73;15.80;;;12.60;99.90;;;;;;5090680;28;20617;-80
2021/09/08 04:10:06;;;;;;;18.87;15.70;;;12.60;99.90;;;;;;5089041;28;20622;-79
2021/09/08 04:12:33;;;;;;;17.17;15.37;;;12.60;99.90;;;;;;5088577;28;20671;-79
2021/09/08 04:15:01;;;;;;;19.67;15.70;;;12.50;99.90;;;;;;5089757;28;20622;-80
2021/09/08 04:17:28;;;;;;;20.07;18.10;;;12.50;99.90;;;;;;5090296;28;20609;-80
2021/09/08 04:19:55;;;;;;;21.37;18.13;;;12.50;99.90;;;;;;5089779;28;20629;-79
2021/09/08 04:22:22;;;;;;;22.50;18.33;;;12.40;99.90;;;;;;5089211;28;20640;-79
2021/09/08 04:24:49;;;;;;;25.77;20.50;;;12.40;99.90;;;;;;5089137;28;20620;-80
2021/09/08 04:27:16;;;;;;;28.07;22.70;;;12.50;99.90;;;;;;5090295;28;20613;-79
2021/09/08 04:29:43;;;;;;;22.10;19.37;;;12.40;99.90;;;;;;5090654;28;21215;-80
2021/09/08 04:32:11;;;;;;;23.40;20.17;;;12.40;99.90;;;;;;5090356;28;21185;-79
2021/09/08 04:34:38;;;;;;;17.97;16.10;;;12.40;99.90;;;;;;5089878;28;20625;-79
2021/09/08 04:37:05;;;;;;;20.77;18.53;;;12.40;99.90;;;;;;5090236;28;20652;-79
2021/09/08 04:39:31;;;;;;;20.80;17.10;;;12.40;99.90;;;;;;5090452;28;20722;-79
2021/09/08 04:41:58;;;;;;;20.33;17.80;;;12.30;99.90;;;;;;5091924;28;20617;-80
2021/09/08 04:44:25;;;;;;;17.97;16.10;;;12.40;99.90;;;;;;5094013;28;20628;-79
2021/09/08 04:46:52;;;;;;;28.17;22.87;;;12.30;99.90;;;;;;5095167;28;20962;-80
2021/09/08 04:49:21;;;;;;;28.00;21.67;;;12.40;99.90;;;;;;5094490;28;20609;-79
2021/09/08 04:51:48;;;;;;;25.27;19.67;;;12.30;99.90;;;;;;5093780;28;20652;-79
2021/09/08 04:54:15;;;;;;;24.53;19.87;;;12.30;99.90;;;;;;5093498;28;20628;-79
2021/09/08 04:56:41;;;;;;;18.80;16.57;;;12.30;99.90;;;;;;5093990;28;20667;-80
2021/09/08 04:59:08;;;;;;;17.77;15.90;;;12.20;99.90;;;;;;5094469;28;20632;-80
2021/09/08 05:01:35;;;;;;;23.57;17.20;;;12.20;99.90;;;;;;5094099;28;20660;-79
2021/09/08 05:04:02;;;;;;;20.17;15.20;;;12.20;99.90;;;;;;5094284;28;20652;-79
2021/09/08 05:06:30;;;;;;;20.20;16.50;;;12.20;99.90;;;;;;5094224;28;20991;-79
2021/09/08 05:08:57;;;;;;;23.40;17.47;;;12.20;99.90;;;;;;5094343;28;20674;-79
2021/09/08 05:11:24;;;;;;;19.97;16.03;;;12.20;99.90;;;;;;5094697;28;20615;-79
2021/09/08 05:13:51;;;;;;;20.17;15.57;;;12.20;99.90;;;;;;5093546;28;20714;-79
2021/09/08 05:16:18;;;;;;;19.27;16.50;;;12.20;99.90;;;;;;5094230;28;20666;-79
2021/09/08 05:18:45;;;;;;;26.20;18.57;;;12.20;99.90;;;;;;5093211;28;20616;-79
2021/09/08 05:21:12;;;;;;;23.63;17.10;;;12.30;99.90;;;;;;5092031;28;20629;-79
2021/09/08 05:23:40;;;;;;;19.90;16.57;;;12.30;99.90;;;;;;5086404;28;21298;-79
2021/09/08 05:26:07;;;;;;;18.60;15.27;;;12.30;99.90;;;;;;5091178;28;20617;-79
2021/09/08 05:28:39;;;;;;;21.10;15.27;;;12.30;99.90;;;;;;5087779;28;20661;-80
2021/09/08 05:31:08;;;;;;;26.13;16.67;;;12.30;99.90;;;;;;5092761;28;20627;-80
2021/09/08 05:33:35;;;;;;;22.27;17.17;;;12.30;99.90;;;;;;5092295;28;20667;-81
2021/09/08 05:36:02;;;;;;;20.60;17.23;;;12.30;99.90;;;;;;5093108;28;20616;-80
2021/09/08 05:38:29;;;;;;;21.37;15.47;;;12.30;99.90;;;;;;5091642;28;20654;-80
2021/09/08 05:40:58;;;;;;;22.30;17.83;;;12.40;99.90;;;;;;5088884;28;20948;-80
2021/09/08 05:43:24;;;;;;;18.37;16.37;;;12.40;99.90;;;;;;5090766;28;20653;-80
2021/09/08 05:45:51;;;;;;;22.37;18.33;;;12.40;99.90;;;;;;5090651;28;20633;-79
2021/09/08 05:48:24;;;;;;;18.77;16.80;;;12.50;99.90;;;;;;5091222;28;21216;-79
2021/09/08 05:50:51;;;;;;;26.43;17.87;;;12.50;99.90;;;;;;5092803;28;20645;-80
2021/09/08 05:53:18;;;;;;;21.10;18.10;;;12.60;99.90;;;;;;5088736;28;21312;-80
2021/09/08 05:55:44;;;;;;;21.63;18.53;;;12.70;99.90;;;;;;5088753;28;20710;-80
2021/09/08 05:58:13;;;;;;;23.17;17.40;;;12.70;99.90;;;;;;5090538;28;21390;-80
2021/09/08 06:00:39;;;;;;;23.33;19.30;;;12.80;99.90;;;;;;5091634;28;20751;-81
2021/09/08 06:03:06;;;;;;;25.00;20.20;;;12.80;99.90;;;;;;5088565;28;20780;-81
2021/09/08 06:05:33;;;;;;;23.10;20.27;;;12.90;99.90;;;;;;5083658;28;20629;-80
2021/09/08 06:08:00;;;;;;;22.93;19.40;;;12.90;99.90;;;;;;5086319;28;20655;-80
2021/09/08 06:10:27;;;;;;;21.63;17.90;;;13.00;99.90;;;;;;5085296;28;20644;-80
2021/09/08 06:12:54;;;;;;;22.73;18.37;;;13.00;99.90;;;;;;5087609;28;21201;-80
2021/09/08 06:15:22;;;;;;;19.70;17.60;;;13.10;99.90;;;;;;5091121;28;20617;-80
2021/09/08 06:17:49;;;;;;;22.77;18.43;;;13.10;99.90;;;;;;5090769;28;20623;-80
2021/09/08 06:20:16;;;;;;;20.83;18.63;;;13.20;99.90;;;;;;5092564;28;21008;-80
2021/09/08 06:22:43;;;;;;;27.40;17.67;;;13.30;99.90;;;;;;5084774;28;21489;-80
2021/09/08 06:25:12;;;;;;;23.83;18.30;;;13.40;99.90;;;;;;5086687;28;20634;-80
2021/09/08 06:27:39;;;;;;;19.80;16.37;;;13.60;99.90;;;;;;5084933;28;20664;-80
2021/09/08 06:30:07;;;;;;;18.57;16.60;;;13.70;99.90;;;;;;5082452;28;20702;-80
2021/09/08 06:32:35;;;;;;;15.63;14.03;;;13.90;99.90;;;;;;5087447;28;20629;-80
2021/09/08 06:35:02;;;;;;;17.60;15.80;;;14.00;99.90;;;;;;5080326;28;20656;-80
2021/09/08 06:37:29;;;;;;;15.73;14.10;;;14.20;99.90;;;;;;5085510;28;20642;-80
2021/09/08 06:39:56;;;;;;;16.77;14.23;;;14.40;99.90;;;;;;5086245;28;20693;-80
2021/09/08 06:42:24;;;;;;;16.07;14.13;;;14.60;99.90;;;;;;5089452;28;20628;-80
2021/09/08 06:44:53;;;;;;;20.30;12.83;;;14.70;99.90;;;;;;5078690;28;20710;-80
2021/09/08 06:47:20;;;;;;;14.03;11.93;;;15.00;99.90;;;;;;5089098;28;20628;-81
2021/09/08 06:49:50;;;;;;;17.10;12.20;;;15.10;99.90;;;;;;5079633;28;21169;-80
2021/09/08 06:52:17;;;;;;;20.23;12.63;;;15.20;98.40;;;;;;5088025;28;20685;-80
2021/09/08 06:54:44;;;;;;;12.83;11.10;;;15.50;97.50;;;;;;5091295;28;20761;-80
2021/09/08 06:57:12;;;;;;;15.40;10.93;;;15.70;96.50;;;;;;5092179;28;20633;-80
2021/09/08 06:59:47;;;;;;;13.80;9.70;;;15.80;96.00;;;;;;5091833;28;21182;-81
2021/09/08 07:02:25;;;;;;;12.33;10.10;;;16.00;95.80;;;;;;5091440;28;20653;-81
2021/09/08 07:04:54;;;;;;;12.13;9.70;;;16.20;94.90;;;;;;5089980;28;20653;-80
2021/09/08 07:07:21;;;;;;;10.87;9.73;;;16.40;94.10;;;;;;5086042;28;20652;-80
2021/09/08 07:09:48;;;;;;;10.47;9.40;;;16.50;94.20;;;;;;5091467;28;20628;-80
2021/09/08 07:12:14;;;;;;;18.20;10.70;;;16.60;93.00;;;;;;5091020;28;20689;-80
2021/09/08 07:14:41;;;;;;;11.93;9.30;;;16.80;92.00;;;;;;5090077;28;20624;-81
2021/09/08 07:17:08;;;;;;;11.97;9.60;;;16.80;92.60;;;;;;5090053;28;20620;-81
2021/09/08 07:19:35;;;;;;;10.33;9.13;;;17.00;92.40;;;;;;5088806;28;20608;-80
2021/09/08 07:22:04;;;;;;;12.33;9.83;;;17.20;92.00;;;;;;5090526;28;20601;-80
2021/09/08 07:24:31;;;;;;;9.80;8.80;;;17.30;92.00;;;;;;5090166;28;20725;-80
2021/09/08 07:26:58;;;;;;;10.13;9.00;;;17.50;91.00;;;;;;5087065;28;20621;-80
2021/09/08 07:29:25;;;;;;;9.93;8.93;;;17.50;91.40;;;;;;5087179;28;20621;-80
2021/09/08 07:31:53;;;;;;;14.40;10.47;;;17.50;92.00;;;;;;5088943;28;21718;-80
2021/09/08 07:34:20;;;;;;;9.00;8.10;;;17.60;91.60;;;;;;5090515;28;20617;-80
2021/09/08 07:36:47;;;;;;;11.80;9.50;;;17.80;90.20;;;;;;5089879;28;20621;-80
2021/09/08 07:39:15;;;;;;;12.97;9.10;;;17.90;90.00;;;;;;5089937;28;20654;-80
2021/09/08 07:41:42;;;;;;;10.47;8.57;;;18.00;88.60;;;;;;5086198;28;20645;-81
2021/09/08 07:44:09;;;;;;;10.30;9.23;;;18.20;88.90;;;;;;5089082;28;20681;-80
2021/09/08 07:46:36;;;;;;;9.63;8.73;;;18.30;89.00;;;;;;5089801;28;20625;-81
2021/09/08 07:49:04;;;;;;;9.80;8.80;;;18.40;88.20;;;;;;5087279;28;20673;-80
2021/09/08 07:51:33;;;;;;;9.40;8.60;;;18.50;87.00;;;;;;5088683;28;21175;-80
2021/09/08 07:54:00;;;;;;;11.20;10.20;;;18.60;86.20;;;;;;5089241;28;20637;-80
2021/09/08 07:56:28;;;;;;;12.67;8.77;;;18.60;86.10;;;;;;5090118;28;20614;-80
2021/09/08 07:58:55;;;;;;;10.17;9.23;;;18.70;83.00;;;;;;5089296;28;21369;-80
2021/09/08 08:01:22;;;;;;;13.07;8.43;;;18.80;85.30;;;;;;5084114;28;20639;-82
2021/09/08 08:03:49;;;;;;;9.67;8.80;;;18.90;84.80;;;;;;5088997;28;20662;-82
2021/09/08 08:06:16;;;;;;;9.93;8.77;;;18.90;84.70;;;;;;5090423;28;20637;-80
2021/09/08 08:08:43;;;;;;;11.10;8.80;;;19.00;84.30;;;;;;5090634;28;20619;-81
2021/09/08 08:11:10;;;;;;;10.30;8.83;;;19.00;83.30;;;;;;5090014;28;20633;-81
2021/09/08 08:13:38;;;;;;;10.20;8.30;;;19.20;82.10;;;;;;5088712;28;20616;-80
2021/09/08 08:16:06;;;;;;;12.57;8.87;;;19.20;80.70;;;;;;5081838;28;20639;-80
2021/09/08 08:18:33;;;;;;;11.90;8.43;;;19.20;82.50;;;;;;5090374;28;20662;-81
2021/09/08 08:21:00;;;;;;;10.57;8.57;;;19.30;82.50;;;;;;5089946;28;20621;-80
2021/09/08 08:23:27;;;;;;;9.43;8.53;;;19.40;83.10;;;;;;5089262;28;20626;-80
2021/09/08 08:25:54;;;;;;;11.10;10.00;;;19.60;81.60;;;;;;5089779;28;20608;-80
2021/09/08 08:28:21;;;;;;;9.70;8.80;;;19.70;81.10;;;;;;5089551;28;20632;-80
2021/09/08 08:30:49;;;;;;;13.00;8.80;;;19.80;82.80;;;;;;5090008;28;20616;-80
2021/09/08 08:33:16;;;;;;;9.10;8.27;;;19.90;80.50;;;;;;5090055;28;20621;-80
2021/09/08 08:35:43;;;;;;;10.00;9.00;;;20.00;78.20;;;;;;5089837;28;21226;-81
2021/09/08 08:38:10;;;;;;;8.27;7.57;;;20.00;78.10;;;;;;5089887;28;20662;-81
2021/09/08 08:40:37;;;;;;;9.60;8.70;;;20.10;79.70;;;;;;5089476;28;20625;-81
2021/09/08 08:43:04;;;;;;;8.97;8.17;;;20.20;77.70;;;;;;5090172;28;20621;-81
2021/09/08 08:45:38;;;;;;;8.20;7.40;;;20.30;78.90;;;;;;5083917;28;20676;-81
2021/09/08 08:48:11;;;;;;;9.27;8.47;;;20.30;79.60;;;;;;5086848;28;20731;-81
2021/09/08 08:50:41;;;;;;;9.80;8.80;;;20.40;80.80;;;;;;5089614;28;20621;-80
2021/09/08 08:53:08;;;;;;;8.97;8.10;;;20.40;78.40;;;;;;5088903;28;20716;-80
2021/09/08 08:55:36;;;;;;;10.40;9.13;;;20.50;78.40;;;;;;5089507;28;20636;-80
2021/09/08 08:58:03;;;;;;;8.07;7.27;;;20.60;78.60;;;;;;5090029;28;20976;-80
2021/09/08 09:00:30;;;;;;;10.03;8.97;;;20.70;78.70;;;;;;5090308;28;20624;-80
2021/09/08 09:02:57;;;;;;;13.97;8.67;;;20.70;77.20;;;;;;5089610;28;20690;-80
2021/09/08 09:05:47;;;;;;;10.57;8.80;;;20.80;77.80;;;;;;5089834;28;20661;-81
2021/09/08 09:08:23;;;;;;;8.37;7.40;;;20.90;77.60;;;;;;5088450;28;20649;-81
2021/09/08 09:10:56;;;;;;;9.23;8.43;;;20.90;77.20;;;;;;5085207;28;20624;-82
2021/09/08 09:13:33;;;;;;;9.93;8.33;;;21.00;76.10;;;;;;5087366;28;21181;-82
2021/09/08 09:16:11;;;;;;;8.63;7.83;;;21.00;75.60;;;;;;5088767;28;20627;-81
2021/09/08 09:18:44;;;;;;;9.10;8.20;;;21.20;76.50;;;;;;5084647;28;20655;-80
2021/09/08 09:21:17;;;;;;;10.60;9.60;;;21.20;77.40;;;;;;5087302;28;21218;-82
2021/09/08 09:23:50;;;;;;;13.00;8.00;;;21.50;75.50;;;;;;5088160;28;20626;-83
2021/09/08 09:26:33;;;;;;;9.77;8.87;;;21.60;74.80;;;;;;5086836;28;20986;-81
2021/09/08 09:29:14;;;;;;;9.00;8.10;;;21.60;76.20;;;;;;5090406;28;20630;-82
2021/09/08 09:31:58;;;;;;;10.40;9.30;;;21.60;73.90;;;;;;5090966;28;20686;-81
2021/09/08 09:34:35;;;;;;;10.53;8.90;;;21.70;74.20;;;;;;5087411;28;20638;-82
2021/09/08 09:37:06;;;;;;;9.67;8.67;;;21.60;76.60;;;;;;5090685;28;20624;-82
2021/09/08 09:39:37;;;;;;;9.53;8.70;;;21.70;77.60;;;;;;5091831;28;20720;-83
2021/09/08 09:42:11;;;;;;;10.03;8.80;;;21.70;75.90;;;;;;5090737;28;20676;-82
2021/09/08 09:44:44;;;;;;;8.70;8.00;;;21.80;79.00;;;;;;5089876;28;20662;-83
2021/09/08 09:47:21;;;;;;;10.37;9.47;;;22.00;78.40;;;;;;5092930;28;21176;-80
2021/09/08 09:49:54;;;;;;;9.37;8.47;;;22.10;75.40;;;;;;5091398;28;20645;-82
2021/09/08 09:52:24;;;;;;;13.50;8.53;;;22.10;76.10;;;;;;5087627;28;20670;-81
2021/09/08 09:54:52;;;;;;;10.00;9.10;;;22.20;75.50;;;;;;5091820;28;21019;-80
2021/09/08 09:57:19;;;;;;;9.40;8.47;;;22.40;74.90;;;;;;5091295;28;20625;-81
2021/09/08 09:59:46;;;;;;;8.83;7.87;;;22.40;74.10;;;;;;5090959;28;21145;-81
2021/09/08 10:02:14;;;;;;;10.00;9.07;;;22.40;74.40;;;;;;5086686;28;20685;-81
2021/09/08 10:04:41;;;;;;;9.90;9.00;;;22.60;72.80;;;;;;5091901;28;20664;-81
2021/09/08 10:07:08;;;;;;;9.37;8.57;;;22.70;73.20;;;;;;5092585;28;20648;-80
2021/09/08 10:09:38;;;;;;;11.70;8.60;;;22.80;72.70;;;;;;5092090;28;20656;-81
2021/09/08 10:12:06;;;;;;;10.30;9.30;;;22.90;73.90;;;;;;5089642;28;20677;-81
2021/09/08 10:14:38;;;;;;;9.37;8.47;;;23.00;73.10;;;;;;5093055;28;21047;-81
2021/09/08 10:17:10;;;;;;;10.53;9.57;;;23.00;71.30;;;;;;5090426;28;20614;-82
2021/09/08 10:19:40;;;;;;;9.70;8.90;;;23.10;73.50;;;;;;5084133;28;20657;-82
2021/09/08 10:22:10;;;;;;;10.30;9.30;;;23.20;71.20;;;;;;5087576;28;21074;-82
2021/09/08 10:24:44;;;;;;;9.53;8.63;;;23.10;70.80;;;;;;5091116;28;20658;-82
2021/09/08 10:27:21;;;;;;;9.47;8.40;;;23.30;71.60;;;;;;5091189;28;20665;-82
2021/09/08 10:29:53;;;;;;;10.20;9.10;;;23.40;72.80;;;;;;5091585;28;20606;-82
2021/09/08 10:32:20;;;;;;;9.57;8.70;;;23.40;71.10;;;;;;5083775;28;20670;-81
2021/09/08 10:34:51;;;;;;;10.20;9.30;;;23.50;70.70;;;;;;5090107;28;20612;-81
2021/09/08 10:37:19;;;;;;;10.77;9.10;;;23.60;71.60;;;;;;5091200;28;21032;-80
2021/09/08 10:40:30;;;;;;;9.80;9.00;;;23.60;70.20;;;;;;5086641;28;20619;-82
2021/09/08 10:43:01;;;;;;;10.77;9.70;;;23.70;71.10;;;;;;5089435;28;20625;-81
2021/09/08 10:45:48;;;;;;;11.73;9.63;;;23.80;71.60;;;;;;5092599;28;20685;-81
2021/09/08 10:48:44;;;;;;;9.70;8.73;;;23.70;70.20;;;;;;5086442;28;20630;-81
2021/09/08 10:51:20;;;;;;;10.03;9.00;;;23.80;70.90;;;;;;5082804;28;20660;-81
2021/09/08 10:54:06;;;;;;;11.50;9.70;;;23.90;70.00;;;;;;5092747;28;20627;-81
2021/09/08 10:56:42;;;;;;;9.87;8.97;;;24.00;69.60;;;;;;5090985;28;20619;-81
2021/09/08 10:59:20;;;;;;;8.73;7.90;;;24.10;67.50;;;;;;5089631;28;21038;-81
2021/09/08 11:02:05;;;;;;;9.00;8.30;;;24.00;69.20;;;;;;5092055;28;20697;-80
2021/09/08 11:04:58;;;;;;;11.83;10.10;;;24.00;69.30;;;;;;5091623;28;20767;-81
2021/09/08 11:07:43;;;;;;;9.57;8.77;;;24.20;70.30;;;;;;5090849;28;21161;-80
2021/09/08 11:10:15;;;;;;;10.23;9.33;;;24.20;71.40;;;;;;5090428;28;20624;-80
2021/09/08 11:12:47;;;;;;;9.70;8.87;;;24.30;69.80;;;;;;5086635;28;20701;-80
2021/09/08 11:15:19;;;;;;;8.90;8.03;;;24.50;67.50;;;;;;5092383;28;20636;-82
2021/09/08 11:17:53;;;;;;;9.77;8.77;;;24.40;69.50;;;;;;5101407;28;20632;-81
2021/09/08 11:20:29;;;;;;;9.57;8.67;;;24.50;68.20;;;;;;5083400;28;20616;-83
2021/09/08 11:23:04;;;;;;;8.87;8.07;;;24.60;68.40;;;;;;5089906;28;20616;-81
2021/09/08 11:25:33;;;;;;;8.97;8.17;;;24.90;67.30;;;;;;5090436;28;20663;-79
2021/09/08 11:28:03;;;;;;;8.67;7.97;;;24.90;69.50;;;;;;5088666;28;21389;-79
2021/09/08 11:30:32;;;;;;;9.80;8.93;;;25.00;68.60;;;;;;5089266;28;20681;-79
2021/09/08 11:33:01;;;;;;;9.70;8.70;;;24.80;68.70;;;;;;5091382;28;20620;-79
2021/09/08 11:35:43;;;;;;;9.20;8.40;;;25.00;67.20;;;;;;5088970;28;20670;-81
2021/09/08 11:38:13;;;;;;;8.97;7.83;;;25.20;65.80;;;;;;5090385;28;20616;-82
2021/09/08 11:40:42;;;;;;;8.10;7.40;;;25.40;64.80;;;;;;5099308;28;20615;-82
2021/09/08 11:43:31;;;;;;;10.63;8.30;;;25.60;63.40;;;;;;5093391;28;20677;-82
2021/09/08 11:46:11;;;;;;;8.53;7.63;;;25.50;64.10;;;;;;5090155;28;20639;-81
2021/09/08 11:48:38;;;;;;;9.40;8.43;;;25.30;65.70;;;;;;5074054;28;20635;-82
2021/09/08 11:51:07;;;;;;;8.63;7.73;;;25.20;66.00;;;;;;5091646;28;20644;-81
2021/09/08 11:53:34;;;;;;;8.20;7.50;;;25.40;63.80;;;;;;5091528;28;20609;-81
2021/09/08 11:56:09;;;;;;;9.00;8.10;;;25.30;62.90;;;;;;5089994;28;21022;-81
2021/09/08 11:58:38;;;;;;;7.70;7.10;;;25.10;64.00;;;;;;5090568;28;20605;-81
2021/09/08 12:01:08;;;;;;;8.23;7.50;;;25.00;62.60;;;;;;5091357;28;20624;-80
2021/09/08 12:03:42;;;;;;;7.23;6.60;;;24.80;65.30;;;;;;5090933;28;20627;-81
2021/09/08 12:06:14;;;;;;;8.33;7.60;;;24.80;63.60;;;;;;5090548;28;20667;-81
2021/09/08 12:08:49;;;;;;;7.97;7.37;;;24.80;63.30;;;;;;5090993;28;20644;-82
2021/09/08 12:11:40;;;;;;;8.73;7.93;;;24.80;62.80;;;;;;5090511;28;20740;-81
2021/09/08 12:14:20;;;;;;;8.27;7.47;;;24.80;63.90;;;;;;5090621;28;20651;-81
2021/09/08 12:16:48;;;;;;;8.37;7.67;;;24.80;64.70;;;;;;5086864;28;20622;-81
2021/09/08 12:19:17;;;;;;;9.47;8.57;;;24.60;68.10;;;;;;5089647;28;21055;-81
2021/09/08 12:21:45;;;;;;;8.50;7.80;;;24.50;68.30;;;;;;5089537;28;20694;-81
2021/09/08 12:24:27;;;;;;;7.80;7.20;;;24.50;68.90;;;;;;5087869;28;20664;-81
2021/09/08 12:26:55;;;;;;;11.20;7.97;;;24.60;63.80;;;;;;5087433;28;20708;-81
2021/09/08 12:29:24;;;;;;;8.60;7.80;;;24.80;63.50;;;;;;5090259;28;20640;-81
2021/09/08 12:31:53;;;;;;;7.77;7.10;;;24.80;64.60;;;;;;5085035;28;20858;-81
2021/09/08 12:34:21;;;;;;;7.90;7.17;;;24.80;62.40;;;;;;5088235;28;21045;-81
2021/09/08 12:36:49;;;;;;;7.13;6.53;;;24.80;63.30;;;;;;5089373;28;20674;-81
2021/09/08 12:39:19;;;;;;;8.77;8.00;;;24.90;60.70;;;;;;5090254;28;20613;-81
2021/09/08 12:41:58;;;;;;;7.60;6.87;;;24.90;60.00;;;;;;5085599;28;20613;-81
2021/09/08 12:44:33;;;;;;;9.20;7.10;;;24.70;64.70;;;;;;5088690;28;20612;-81